Time;durP1;ratioP1;P1;durP2;ratioP2;P2;SDS_P1;SDS_P2;PMS_P1;PMS_P2;Temp;Humidity;BMP_temperature;BMP_pressure;BME280_temperature;BME280_humidity;BME280_pressure;Samples;Min_cycle;Max_cycle;Signal;HPM_P1;HPM_P2
2021/04/25 00:00:20;;;;;;;2.40;2.20;;;21.40;35.50;;;;;;5054440;28;20426;-60
2021/04/25 00:02:46;;;;;;;2.63;2.10;;;21.40;35.60;;;;;;5054470;28;20099;-61
2021/04/25 00:05:14;;;;;;;2.25;1.92;;;21.30;35.60;;;;;;5054383;28;20053;-61
2021/04/25 00:07:40;;;;;;;2.78;2.25;;;21.30;35.60;;;;;;5053906;28;20086;-61
2021/04/25 00:10:07;;;;;;;3.83;2.22;;;21.30;35.60;;;;;;5054270;28;20020;-62
2021/04/25 00:12:33;;;;;;;3.25;2.38;;;21.30;35.60;;;;;;5053997;28;20097;-61
2021/04/25 00:14:59;;;;;;;2.38;1.98;;;21.30;35.60;;;;;;5053923;28;20451;-61
2021/04/25 00:17:25;;;;;;;3.53;2.47;;;21.30;35.70;;;;;;5054394;28;20073;-60
2021/04/25 00:19:51;;;;;;;3.88;2.20;;;21.30;35.60;;;;;;5053887;28;20025;-60
2021/04/25 00:22:16;;;;;;;3.15;2.53;;;21.20;35.60;;;;;;5054923;28;20033;-61
2021/04/25 00:24:42;;;;;;;3.90;2.20;;;21.20;35.60;;;;;;5057927;28;20447;-62
2021/04/25 00:27:07;;;;;;;3.67;2.13;;;21.20;35.60;;;;;;5058087;28;20049;-61
2021/04/25 00:29:33;;;;;;;4.43;2.50;;;21.20;35.60;;;;;;5057863;28;20024;-61
2021/04/25 00:31:59;;;;;;;3.80;2.22;;;21.20;35.60;;;;;;5058338;28;20025;-60
2021/04/25 00:34:24;;;;;;;3.45;2.17;;;21.20;35.60;;;;;;5057709;28;20111;-62
2021/04/25 00:36:50;;;;;;;5.00;2.45;;;21.20;35.60;;;;;;5057784;28;20411;-62
2021/04/25 00:39:15;;;;;;;3.38;2.22;;;21.20;35.70;;;;;;5057720;28;20029;-61
2021/04/25 00:41:41;;;;;;;2.35;2.15;;;21.10;35.60;;;;;;5057186;28;20100;-60
2021/04/25 00:44:09;;;;;;;2.75;2.28;;;21.20;35.70;;;;;;5057398;28;20043;-61
2021/04/25 00:46:35;;;;;;;3.20;2.20;;;21.20;35.70;;;;;;5039891;28;20025;-62
2021/04/25 00:49:00;;;;;;;4.60;2.20;;;21.10;35.60;;;;;;5057612;28;20021;-62
2021/04/25 00:51:26;;;;;;;4.50;2.67;;;21.10;35.60;;;;;;5057520;28;20032;-60
2021/04/25 00:53:52;;;;;;;3.22;2.20;;;21.10;35.60;;;;;;5056988;28;20044;-59
2021/04/25 00:56:18;;;;;;;2.88;2.55;;;21.10;35.70;;;;;;5056878;28;20078;-60
2021/04/25 00:58:44;;;;;;;2.55;2.20;;;21.10;35.70;;;;;;5057583;28;20116;-60
2021/04/25 01:01:10;;;;;;;2.58;2.03;;;21.10;35.70;;;;;;5056913;28;20170;-59
2021/04/25 01:03:35;;;;;;;4.07;2.63;;;21.10;35.70;;;;;;5056947;28;20039;-60
2021/04/25 01:06:02;;;;;;;2.53;2.33;;;21.10;35.70;;;;;;5057059;28;20029;-60
2021/04/25 01:08:27;;;;;;;2.45;2.10;;;21.00;35.70;;;;;;5056839;28;20120;-60
2021/04/25 01:10:53;;;;;;;2.92;2.22;;;21.00;35.70;;;;;;5057174;28;20056;-60
2021/04/25 01:13:19;;;;;;;3.03;2.47;;;21.00;35.70;;;;;;5056665;28;20406;-60
2021/04/25 01:15:45;;;;;;;2.78;2.22;;;21.00;35.70;;;;;;5056925;28;20025;-60
2021/04/25 01:18:11;;;;;;;3.88;2.42;;;21.00;35.60;;;;;;5056965;28;20021;-60
2021/04/25 01:20:37;;;;;;;2.80;2.50;;;21.00;35.70;;;;;;5057069;28;20440;-60
2021/04/25 01:23:03;;;;;;;3.00;2.60;;;21.00;35.70;;;;;;5056593;28;20029;-59
2021/04/25 01:25:28;;;;;;;3.53;2.40;;;21.00;35.70;;;;;;5056907;28;20025;-61
2021/04/25 01:27:54;;;;;;;2.55;2.35;;;20.90;35.60;;;;;;5056810;28;20044;-60
2021/04/25 01:30:25;;;;;;;3.05;2.13;;;20.90;35.60;;;;;;5056598;28;20021;-61
2021/04/25 01:32:51;;;;;;;3.42;2.17;;;20.90;35.60;;;;;;5055946;28;20017;-61
2021/04/25 01:35:22;;;;;;;3.53;2.72;;;20.90;35.60;;;;;;5056292;28;20040;-61
2021/04/25 01:37:50;;;;;;;2.38;2.17;;;20.90;35.60;;;;;;5056814;28;20126;-60
2021/04/25 01:40:16;;;;;;;4.80;2.30;;;20.90;35.60;;;;;;5039176;28;20351;-60
2021/04/25 01:42:42;;;;;;;6.00;2.60;;;20.90;35.60;;;;;;5056611;28;20040;-60
2021/04/25 01:45:15;;;;;;;2.65;2.20;;;20.90;35.60;;;;;;5056018;28;20025;-60
2021/04/25 01:47:42;;;;;;;2.72;2.17;;;20.90;35.60;;;;;;5056195;28;20017;-60
2021/04/25 01:50:08;;;;;;;5.50;2.50;;;20.90;35.60;;;;;;5056495;28;20039;-60
2021/04/25 01:52:33;;;;;;;2.88;2.20;;;20.90;35.60;;;;;;5056113;28;20100;-60
2021/04/25 01:54:59;;;;;;;2.47;2.17;;;20.80;35.60;;;;;;5056291;28;20068;-61
2021/04/25 01:57:24;;;;;;;2.58;2.30;;;20.80;35.60;;;;;;5056582;28;20040;-59
2021/04/25 01:59:50;;;;;;;3.90;2.33;;;20.80;35.60;;;;;;5055916;28;20035;-59
2021/04/25 02:02:15;;;;;;;3.63;2.33;;;20.80;35.60;;;;;;5055669;28;20348;-60
2021/04/25 02:04:41;;;;;;;3.50;2.38;;;20.80;35.60;;;;;;5055363;28;20029;-60
2021/04/25 02:07:07;;;;;;;4.35;2.38;;;20.80;35.60;;;;;;5055466;28;20035;-60
2021/04/25 02:09:32;;;;;;;4.32;2.50;;;20.70;35.50;;;;;;5056082;28;20340;-60
2021/04/25 02:11:58;;;;;;;3.55;2.40;;;20.80;35.60;;;;;;5055902;28;20025;-59
2021/04/25 02:14:24;;;;;;;2.55;1.85;;;20.80;35.60;;;;;;5055847;28;20029;-60
2021/04/25 02:16:49;;;;;;;3.05;2.35;;;20.80;35.60;;;;;;5055671;28;20032;-60
2021/04/25 02:19:15;;;;;;;2.90;2.13;;;20.70;35.50;;;;;;5055421;28;20020;-59
2021/04/25 02:21:40;;;;;;;3.88;2.42;;;20.70;35.60;;;;;;5055855;28;20028;-60
2021/04/25 02:24:06;;;;;;;3.75;2.28;;;20.70;35.60;;;;;;5055653;28;20039;-60
2021/04/25 02:26:32;;;;;;;3.72;2.08;;;20.70;35.60;;;;;;5055443;28;20126;-60
2021/04/25 02:28:57;;;;;;;2.40;2.03;;;20.70;36.30;;;;;;5055179;28;20440;-60
2021/04/25 02:31:23;;;;;;;2.78;1.70;;;20.70;35.50;;;;;;5055809;28;20017;-60
2021/04/25 02:33:49;;;;;;;2.25;1.85;;;20.70;35.50;;;;;;5055124;28;20098;-60
2021/04/25 02:36:14;;;;;;;2.22;2.00;;;20.70;35.50;;;;;;5055107;28;20041;-61
2021/04/25 02:38:40;;;;;;;2.63;1.90;;;20.60;35.40;;;;;;5037887;28;20027;-61
2021/04/25 02:41:05;;;;;;;2.15;1.90;;;20.60;35.40;;;;;;5055010;28;20048;-60
2021/04/25 02:43:31;;;;;;;3.00;2.20;;;20.60;35.40;;;;;;5055344;28;20021;-60
2021/04/25 02:45:56;;;;;;;3.42;1.90;;;20.70;35.50;;;;;;5054591;28;20115;-61
2021/04/25 02:48:22;;;;;;;2.80;2.35;;;20.60;35.40;;;;;;5055222;28;20078;-60
2021/04/25 02:50:47;;;;;;;1.83;1.60;;;20.60;36.10;;;;;;5055330;28;20478;-60
2021/04/25 02:53:13;;;;;;;2.60;2.10;;;20.60;35.40;;;;;;5055084;28;20128;-60
2021/04/25 02:55:40;;;;;;;2.00;1.77;;;20.60;35.40;;;;;;5054983;28;20500;-61
2021/04/25 02:58:07;;;;;;;2.85;2.03;;;20.60;35.30;;;;;;5054596;28;20440;-60
2021/04/25 03:00:32;;;;;;;2.08;1.70;;;20.60;35.30;;;;;;5055062;28;20394;-60
2021/04/25 03:02:59;;;;;;;2.63;1.88;;;20.50;35.30;;;;;;5054954;28;20108;-60
2021/04/25 03:05:25;;;;;;;2.72;1.92;;;20.50;35.20;;;;;;5054764;28;20092;-62
2021/04/25 03:07:51;;;;;;;2.85;1.80;;;20.50;35.20;;;;;;5054852;28;20033;-60
2021/04/25 03:10:18;;;;;;;2.85;1.88;;;20.50;35.20;;;;;;5054813;28;20025;-59
2021/04/25 03:12:44;;;;;;;4.00;2.30;;;20.50;35.80;;;;;;5054862;28;20411;-57
2021/04/25 03:15:12;;;;;;;2.75;1.88;;;20.50;35.70;;;;;;5054583;28;20029;-59
2021/04/25 03:17:38;;;;;;;1.92;1.73;;;20.50;35.50;;;;;;5054098;28;20082;-59
2021/04/25 03:20:06;;;;;;;2.60;2.25;;;20.50;35.40;;;;;;5054823;28;20048;-60
2021/04/25 03:22:32;;;;;;;2.75;1.60;;;20.50;35.40;;;;;;5054637;28;20024;-60
2021/04/25 03:24:58;;;;;;;3.75;2.30;;;20.50;35.30;;;;;;5054465;28;20021;-59
2021/04/25 03:27:23;;;;;;;2.83;2.00;;;20.50;35.30;;;;;;5054390;28;20376;-59
2021/04/25 03:29:49;;;;;;;2.72;1.98;;;20.40;35.20;;;;;;5054450;28;20029;-61
2021/04/25 03:32:15;;;;;;;5.05;1.95;;;20.40;35.10;;;;;;5054560;28;20068;-59
2021/04/25 03:34:40;;;;;;;2.35;1.85;;;20.40;35.10;;;;;;5054103;28;20204;-59
2021/04/25 03:37:06;;;;;;;1.92;1.70;;;20.40;35.10;;;;;;5054514;28;20021;-59
2021/04/25 03:39:31;;;;;;;2.60;1.63;;;20.40;35.10;;;;;;5054390;28;20029;-59
2021/04/25 03:41:57;;;;;;;2.88;2.00;;;20.40;35.10;;;;;;5054596;28;20033;-59
2021/04/25 03:44:22;;;;;;;2.67;1.75;;;20.30;35.10;;;;;;5054359;28;20112;-58
2021/04/25 03:46:48;;;;;;;2.75;1.65;;;20.40;35.10;;;;;;5054449;28;20343;-61
2021/04/25 03:49:19;;;;;;;1.95;1.45;;;20.30;35.00;;;;;;5054298;28;20452;-59
2021/04/25 03:51:46;;;;;;;3.60;2.03;;;20.30;35.00;;;;;;5055044;28;20324;-60
2021/04/25 03:54:12;;;;;;;2.53;1.95;;;20.30;35.00;;;;;;5054452;28;20094;-59
2021/04/25 03:56:37;;;;;;;3.65;1.90;;;20.30;35.00;;;;;;5055810;28;20029;-59
2021/04/25 03:59:03;;;;;;;4.40;2.35;;;20.30;35.00;;;;;;5058077;28;20064;-58
2021/04/25 04:01:28;;;;;;;2.60;1.92;;;20.30;34.90;;;;;;5058006;28;20036;-58
2021/04/25 04:03:54;;;;;;;2.13;1.45;;;20.30;34.90;;;;;;5058937;28;20028;-59
2021/04/25 04:06:19;;;;;;;2.92;2.67;;;20.30;35.00;;;;;;5058266;28;20021;-59
2021/04/25 04:08:45;;;;;;;3.92;1.92;;;20.30;34.90;;;;;;5057879;28;20021;-58
2021/04/25 04:11:11;;;;;;;1.58;1.38;;;20.30;34.90;;;;;;5058244;28;20347;-60
2021/04/25 04:13:36;;;;;;;2.83;1.60;;;20.30;34.90;;;;;;5057789;28;20047;-61
2021/04/25 04:16:02;;;;;;;2.05;1.55;;;20.30;34.90;;;;;;5057810;28;20174;-59
2021/04/25 04:18:28;;;;;;;4.53;1.83;;;20.30;34.90;;;;;;5058162;28;20036;-60
2021/04/25 04:20:53;;;;;;;2.47;1.75;;;20.30;34.90;;;;;;5057960;28;20021;-60
2021/04/25 04:23:18;;;;;;;2.22;1.65;;;20.30;34.90;;;;;;5040179;28;20021;-60
2021/04/25 04:25:44;;;;;;;3.38;1.95;;;20.20;34.80;;;;;;5058001;28;20029;-60
2021/04/25 04:28:10;;;;;;;2.42;1.80;;;20.20;34.80;;;;;;5057688;28;20041;-61
2021/04/25 04:30:35;;;;;;;1.40;1.20;;;20.20;34.80;;;;;;5058076;28;20418;-59
2021/04/25 04:33:01;;;;;;;2.13;1.70;;;20.20;34.80;;;;;;5057625;28;20083;-60
2021/04/25 04:35:27;;;;;;;2.83;1.70;;;20.20;34.80;;;;;;5057966;28;20032;-59
2021/04/25 04:37:53;;;;;;;1.85;1.48;;;20.20;35.60;;;;;;5057716;28;20020;-58
2021/04/25 04:40:19;;;;;;;3.15;1.30;;;20.20;35.00;;;;;;5057939;28;20083;-59
2021/04/25 04:42:44;;;;;;;1.65;1.55;;;20.20;35.00;;;;;;5057551;28;20021;-60
2021/04/25 04:45:13;;;;;;;4.03;1.70;;;20.20;34.90;;;;;;5056930;28;20021;-59
2021/04/25 04:47:40;;;;;;;2.85;1.80;;;20.20;34.80;;;;;;5057098;28;20454;-61
2021/04/25 04:50:06;;;;;;;3.20;1.50;;;20.20;34.90;;;;;;5057733;28;20016;-59
2021/04/25 04:52:32;;;;;;;2.67;1.65;;;20.20;34.80;;;;;;5057431;28;20033;-59
2021/04/25 04:54:57;;;;;;;1.90;1.65;;;20.20;34.90;;;;;;5057361;28;20041;-58
2021/04/25 04:57:23;;;;;;;1.98;1.77;;;20.10;34.90;;;;;;5057322;28;20025;-59
2021/04/25 04:59:49;;;;;;;2.60;1.58;;;20.20;34.90;;;;;;5056851;28;20085;-59
2021/04/25 05:02:14;;;;;;;2.42;1.60;;;20.20;34.90;;;;;;5057218;28;20024;-58
2021/04/25 05:04:40;;;;;;;3.13;1.50;;;20.10;34.80;;;;;;5057120;28;20465;-59
2021/04/25 05:07:06;;;;;;;2.15;1.55;;;20.10;34.80;;;;;;5057522;28;20036;-61
2021/04/25 05:09:31;;;;;;;3.03;1.70;;;20.10;34.80;;;;;;5056392;28;20029;-59
2021/04/25 05:11:57;;;;;;;2.38;1.52;;;20.10;34.80;;;;;;5056901;28;20025;-60
2021/04/25 05:14:23;;;;;;;2.50;1.50;;;20.10;34.80;;;;;;5056653;28;20033;-58
2021/04/25 05:16:49;;;;;;;2.05;1.50;;;20.10;34.80;;;;;;5039292;28;20029;-59
2021/04/25 05:19:14;;;;;;;3.15;1.67;;;20.10;34.80;;;;;;5056844;28;20033;-59
2021/04/25 05:21:40;;;;;;;2.08;1.08;;;20.10;34.80;;;;;;5056489;28;20395;-59
2021/04/25 05:24:07;;;;;;;2.50;1.40;;;20.10;34.80;;;;;;5056624;28;20370;-59
2021/04/25 05:26:33;;;;;;;1.90;1.30;;;20.00;34.80;;;;;;5056820;28;20048;-59
2021/04/25 05:28:58;;;;;;;2.50;1.60;;;20.10;34.80;;;;;;5056978;28;20420;-59
2021/04/25 05:31:24;;;;;;;3.10;1.48;;;20.10;34.80;;;;;;5057147;28;20335;-60
2021/04/25 05:33:49;;;;;;;3.30;1.33;;;20.10;34.80;;;;;;5056505;28;20532;-59
2021/04/25 05:36:15;;;;;;;2.17;1.27;;;20.00;34.70;;;;;;5056402;28;20471;-57
2021/04/25 05:38:40;;;;;;;4.28;1.63;;;20.10;35.00;;;;;;5056102;28;20024;-57
2021/04/25 05:41:06;;;;;;;3.25;1.10;;;20.10;35.30;;;;;;5056489;28;20029;-55
2021/04/25 05:43:31;;;;;;;3.08;1.25;;;20.00;35.30;;;;;;5056366;28;20040;-60
2021/04/25 05:45:57;;;;;;;5.22;1.38;;;20.00;35.00;;;;;;5056225;28;20079;-58
2021/04/25 05:48:23;;;;;;;4.95;1.33;;;20.00;35.20;;;;;;5056116;28;20029;-59
2021/04/25 05:50:48;;;;;;;4.75;1.60;;;20.00;35.30;;;;;;5056469;28;20066;-59
2021/04/25 05:53:14;;;;;;;4.60;1.38;;;20.00;35.50;;;;;;5056276;28;20074;-58
2021/04/25 05:55:40;;;;;;;1.80;1.35;;;20.00;35.40;;;;;;5055623;28;20420;-59
2021/04/25 05:58:05;;;;;;;5.20;1.50;;;20.00;35.40;;;;;;5055633;28;20443;-60
2021/04/25 06:00:33;;;;;;;4.45;1.25;;;20.00;35.50;;;;;;5055523;28;20083;-59
2021/04/25 06:02:59;;;;;;;3.63;1.45;;;20.00;35.60;;;;;;5056306;28;20028;-58
2021/04/25 06:05:27;;;;;;;5.78;1.40;;;20.00;35.70;;;;;;5055962;28;20428;-59
2021/04/25 06:07:52;;;;;;;5.65;1.30;;;20.00;35.70;;;;;;5055679;28;20025;-59
2021/04/25 06:10:20;;;;;;;6.90;1.27;;;20.00;35.70;;;;;;5055863;28;20412;-57
2021/04/25 06:12:50;;;;;;;4.80;1.40;;;20.10;35.80;;;;;;5055754;28;20054;-58
2021/04/25 06:15:18;;;;;;;2.92;1.20;;;20.10;35.80;;;;;;5055724;28;20079;-60
2021/04/25 06:17:44;;;;;;;3.00;0.98;;;20.10;35.80;;;;;;5055977;28;20086;-59
2021/04/25 06:20:11;;;;;;;2.72;1.60;;;20.10;35.80;;;;;;5055011;28;20020;-58
2021/04/25 06:22:37;;;;;;;1.52;1.10;;;20.10;35.80;;;;;;5055234;28;20527;-58
2021/04/25 06:25:03;;;;;;;6.05;1.30;;;20.20;36.00;;;;;;5055973;28;20104;-60
2021/04/25 06:27:28;;;;;;;5.63;1.25;;;20.20;36.30;;;;;;5055746;28;20059;-55
2021/04/25 06:29:54;;;;;;;5.25;1.02;;;20.20;36.30;;;;;;5055746;28;20436;-59
2021/04/25 06:32:20;;;;;;;7.68;1.20;;;20.20;36.20;;;;;;5055054;28;20091;-59
2021/04/25 06:34:46;;;;;;;3.75;1.27;;;20.20;36.10;;;;;;5055104;28;20076;-60
2021/04/25 06:37:12;;;;;;;5.78;1.27;;;20.20;36.00;;;;;;5055050;28;20102;-59
2021/04/25 06:39:38;;;;;;;2.42;1.00;;;20.20;35.90;;;;;;5055083;28;20151;-59
2021/04/25 06:42:04;;;;;;;2.83;1.10;;;20.30;35.90;;;;;;5055230;28;20029;-59
2021/04/25 06:44:29;;;;;;;3.38;1.27;;;20.30;35.90;;;;;;5055384;28;20130;-59
2021/04/25 06:46:55;;;;;;;5.28;1.40;;;20.30;35.80;;;;;;5037853;28;20440;-59
2021/04/25 06:49:22;;;;;;;5.70;1.05;;;20.30;35.80;;;;;;5055590;28;20416;-60
2021/04/25 06:51:48;;;;;;;4.10;1.27;;;20.30;35.70;;;;;;5054661;28;20124;-61
2021/04/25 06:54:14;;;;;;;2.08;0.88;;;20.30;35.70;;;;;;5054965;28;20037;-59
2021/04/25 06:56:40;;;;;;;2.33;1.10;;;20.30;35.70;;;;;;5054963;28;20108;-59
2021/04/25 06:59:06;;;;;;;5.78;1.15;;;20.20;35.60;;;;;;5054611;28;20104;-60
2021/04/25 07:01:32;;;;;;;1.85;1.05;;;20.30;35.60;;;;;;5055183;28;20025;-59
2021/04/25 07:03:57;;;;;;;4.85;1.08;;;20.30;35.50;;;;;;5055050;28;20086;-59
2021/04/25 07:06:23;;;;;;;1.27;1.00;;;20.30;35.50;;;;;;5054343;28;20029;-59
2021/04/25 07:08:49;;;;;;;1.65;1.00;;;20.30;35.50;;;;;;5054789;28;20029;-60
2021/04/25 07:11:14;;;;;;;3.60;1.10;;;20.30;35.50;;;;;;5054946;28;20339;-60
2021/04/25 07:13:40;;;;;;;2.85;1.20;;;20.30;35.40;;;;;;5054400;28;20029;-59
2021/04/25 07:16:06;;;;;;;4.03;1.30;;;20.30;35.40;;;;;;5054485;28;20436;-60
2021/04/25 07:18:32;;;;;;;2.65;0.77;;;20.30;35.40;;;;;;5054742;28;20028;-56
2021/04/25 07:20:58;;;;;;;9.02;1.35;;;20.40;35.40;;;;;;5054475;28;20029;-56
2021/04/25 07:23:24;;;;;;;3.15;1.10;;;20.40;35.60;;;;;;5055218;28;20036;-55
2021/04/25 07:25:51;;;;;;;3.28;1.17;;;20.40;35.60;;;;;;5054141;28;20158;-59
2021/04/25 07:28:18;;;;;;;3.47;1.17;;;20.30;35.40;;;;;;5054861;28;20417;-60
2021/04/25 07:30:43;;;;;;;4.32;1.00;;;20.30;35.40;;;;;;5054471;28;20039;-57
2021/04/25 07:33:09;;;;;;;5.13;1.10;;;20.40;35.50;;;;;;5054646;28;20100;-57
2021/04/25 07:35:34;;;;;;;1.75;0.82;;;20.40;35.60;;;;;;5036850;28;20034;-60
2021/04/25 07:38:00;;;;;;;6.43;1.02;;;20.40;35.50;;;;;;5054647;28;20039;-58
2021/04/25 07:40:26;;;;;;;8.55;1.40;;;20.40;35.60;;;;;;5054806;28;20025;-60
2021/04/25 07:42:51;;;;;;;2.17;1.10;;;20.40;35.50;;;;;;5054692;28;20033;-59
2021/04/25 07:45:17;;;;;;;1.90;0.85;;;20.40;35.60;;;;;;5054314;28;20033;-60
2021/04/25 07:47:44;;;;;;;4.40;0.88;;;20.50;35.60;;;;;;5037328;28;20078;-59
2021/04/25 07:50:10;;;;;;;4.47;1.23;;;20.40;35.60;;;;;;5054624;28;20112;-59
2021/04/25 07:52:36;;;;;;;1.77;0.80;;;20.40;35.60;;;;;;5053522;28;20033;-60
2021/04/25 07:55:04;;;;;;;1.52;0.70;;;20.50;36.40;;;;;;5053848;28;20037;-59
2021/04/25 07:57:30;;;;;;;3.65;0.85;;;20.50;35.70;;;;;;5054477;28;20470;-59
2021/04/25 07:59:55;;;;;;;5.07;0.98;;;20.50;35.80;;;;;;5054115;28;20033;-59
2021/04/25 08:02:22;;;;;;;4.80;1.05;;;20.50;35.80;;;;;;5054588;28;20029;-59
2021/04/25 08:04:49;;;;;;;1.92;0.75;;;20.50;35.80;;;;;;5054019;28;20029;-59
2021/04/25 08:07:15;;;;;;;4.18;0.85;;;20.50;35.80;;;;;;5054359;28;20021;-59
2021/04/25 08:09:41;;;;;;;3.70;0.90;;;20.50;35.80;;;;;;5054047;28;20421;-58
2021/04/25 08:12:07;;;;;;;2.75;0.95;;;20.60;35.90;;;;;;5054112;28;20029;-58
2021/04/25 08:14:32;;;;;;;2.33;0.90;;;20.50;35.90;;;;;;5054500;28;20052;-59
2021/04/25 08:16:58;;;;;;;4.10;1.02;;;20.60;36.00;;;;;;5054397;28;20029;-57
2021/04/25 08:19:24;;;;;;;7.57;0.82;;;20.60;36.10;;;;;;5054155;28;20026;-58
2021/04/25 08:21:49;;;;;;;1.88;0.98;;;20.60;36.10;;;;;;5054201;28;20096;-54
2021/04/25 08:24:15;;;;;;;2.42;0.95;;;20.60;36.30;;;;;;5053967;28;20025;-53
2021/04/25 08:26:40;;;;;;;4.50;1.02;;;20.60;36.30;;;;;;5054274;28;20359;-58
2021/04/25 08:29:06;;;;;;;2.40;0.75;;;20.60;36.40;;;;;;5054596;28;20411;-58
2021/04/25 08:31:32;;;;;;;1.95;0.77;;;20.60;36.40;;;;;;5053899;28;20037;-54
2021/04/25 08:33:57;;;;;;;0.82;0.55;;;20.60;36.40;;;;;;5054005;28;20057;-58
2021/04/25 08:36:23;;;;;;;0.93;0.60;;;20.60;36.40;;;;;;5053804;28;20313;-58
2021/04/25 08:38:48;;;;;;;2.28;0.80;;;20.60;36.40;;;;;;5053263;28;20025;-57
2021/04/25 08:41:15;;;;;;;2.08;0.77;;;20.70;36.40;;;;;;5054106;28;20409;-54
2021/04/25 08:43:42;;;;;;;2.30;0.57;;;20.70;36.40;;;;;;5055931;28;20084;-58
2021/04/25 08:46:09;;;;;;;2.88;0.95;;;20.70;36.40;;;;;;5045624;28;20025;-59
2021/04/25 08:48:35;;;;;;;2.45;0.63;;;20.70;36.40;;;;;;5037894;28;20022;-58
2021/04/25 08:51:02;;;;;;;2.03;0.60;;;20.70;36.40;;;;;;5037691;28;20057;-57
2021/04/25 08:53:28;;;;;;;2.50;0.75;;;20.80;36.50;;;;;;5037497;28;20179;-59
2021/04/25 08:55:53;;;;;;;1.27;0.52;;;20.80;36.40;;;;;;5037632;28;20029;-59
2021/04/25 08:58:21;;;;;;;1.15;0.70;;;20.80;36.50;;;;;;5037846;28;20098;-60
2021/04/25 09:00:47;;;;;;;1.55;0.90;;;20.80;36.50;;;;;;5037150;28;20103;-61
2021/04/25 09:03:14;;;;;;;2.55;0.50;;;20.80;36.50;;;;;;5037463;28;20025;-60
2021/04/25 09:05:40;;;;;;;3.20;0.75;;;20.80;36.40;;;;;;5037438;28;20115;-58
2021/04/25 09:08:07;;;;;;;2.15;0.70;;;20.80;36.40;;;;;;5037135;28;20075;-59
2021/04/25 09:10:38;;;;;;;0.82;0.50;;;20.80;36.50;;;;;;5037967;28;20017;-58
2021/04/25 09:13:26;;;;;;;2.67;1.08;;;20.90;36.50;;;;;;5037150;28;20041;-55
2021/04/25 09:15:53;;;;;;;4.38;1.35;;;20.90;36.50;;;;;;5019844;28;20087;-58
2021/04/25 09:18:34;;;;;;;5.88;0.80;;;20.90;36.70;;;;;;5037260;28;20022;-60
2021/04/25 09:21:07;;;;;;;1.20;0.63;;;20.90;36.70;;;;;;5037134;28;20028;-58
2021/04/25 09:23:33;;;;;;;2.42;0.70;;;20.90;36.70;;;;;;5037111;28;20040;-56
2021/04/25 09:26:05;;;;;;;6.88;0.75;;;20.90;36.80;;;;;;5037014;28;20021;-59
2021/04/25 09:28:31;;;;;;;2.25;0.82;;;20.90;36.90;;;;;;5037420;28;20038;-59
2021/04/25 09:31:01;;;;;;;6.82;1.00;;;20.90;37.10;;;;;;5037043;28;20064;-60
2021/04/25 09:33:46;;;;;;;5.28;1.42;;;20.90;37.40;;;;;;5036476;28;20029;-59
2021/04/25 09:36:15;;;;;;;4.70;1.02;;;20.90;37.40;;;;;;5036467;28;20021;-59
2021/04/25 09:38:40;;;;;;;5.72;1.23;;;20.90;37.50;;;;;;5036799;28;20117;-59
2021/04/25 09:41:06;;;;;;;6.20;1.55;;;20.90;37.60;;;;;;5036788;28;20088;-55
2021/04/25 09:43:40;;;;;;;7.63;1.33;;;20.90;37.90;;;;;;5036675;28;20029;-57
2021/04/25 09:46:06;;;;;;;1.55;0.60;;;20.90;38.00;;;;;;5036918;28;20460;-57
2021/04/25 09:48:34;;;;;;;6.63;1.15;;;21.00;38.10;;;;;;5036369;28;20030;-54
2021/04/25 09:51:11;;;;;;;5.22;1.35;;;21.00;38.30;;;;;;5036963;28;20052;-55
2021/04/25 09:53:39;;;;;;;16.00;1.35;;;21.00;38.30;;;;;;5036327;28;20029;-59
2021/04/25 09:56:06;;;;;;;4.68;0.80;;;21.00;38.50;;;;;;5036792;28;20025;-51
2021/04/25 09:58:32;;;;;;;7.57;1.25;;;21.00;38.50;;;;;;5036382;28;20030;-52
2021/04/25 10:00:57;;;;;;;3.10;0.93;;;21.00;38.70;;;;;;5036254;28;20428;-51
2021/04/25 10:03:34;;;;;;;3.72;1.08;;;21.10;38.70;;;;;;5036113;28;20036;-52
2021/04/25 10:06:06;;;;;;;7.65;1.40;;;21.00;38.80;;;;;;5036381;28;20025;-55
2021/04/25 10:08:35;;;;;;;5.88;0.80;;;21.10;38.80;;;;;;5036259;28;20364;-54
2021/04/25 10:11:03;;;;;;;5.32;1.00;;;21.10;38.90;;;;;;5036231;28;20044;-54
2021/04/25 10:13:30;;;;;;;4.30;1.10;;;21.10;39.30;;;;;;5034857;28;20045;-56
2021/04/25 10:15:57;;;;;;;6.70;1.10;;;21.10;39.40;;;;;;5039995;28;20017;-53
2021/04/25 10:18:23;;;;;;;2.72;1.10;;;21.10;39.30;;;;;;5055982;28;20020;-56
2021/04/25 10:20:51;;;;;;;9.70;1.38;;;21.10;39.30;;;;;;5055527;28;20455;-59
2021/04/25 10:23:18;;;;;;;8.63;1.17;;;21.10;39.10;;;;;;5055567;28;20035;-54
2021/04/25 10:25:44;;;;;;;4.05;1.20;;;21.10;38.80;;;;;;5054200;28;20040;-57
2021/04/25 10:28:18;;;;;;;7.95;1.50;;;21.10;38.60;;;;;;5056165;28;20060;-53
2021/04/25 10:30:45;;;;;;;11.30;1.10;;;21.10;38.30;;;;;;5055357;28;20096;-57
2021/04/25 10:33:10;;;;;;;8.85;1.58;;;21.10;38.40;;;;;;5055591;28;20108;-56
2021/04/25 10:35:36;;;;;;;3.92;0.90;;;21.10;38.70;;;;;;5055274;28;20109;-59
2021/04/25 10:38:06;;;;;;;8.00;1.75;;;21.10;38.40;;;;;;5055707;28;20025;-58
2021/04/25 10:40:44;;;;;;;4.43;1.40;;;21.10;37.50;;;;;;5055432;28;20025;-59
2021/04/25 10:43:11;;;;;;;5.43;0.90;;;21.10;38.20;;;;;;5055416;28;20036;-57
2021/04/25 10:46:00;;;;;;;9.20;1.80;;;21.20;38.60;;;;;;5054971;28;20348;-55
2021/04/25 10:48:35;;;;;;;3.42;0.82;;;21.20;38.90;;;;;;5055296;28;20052;-56
2021/04/25 10:51:09;;;;;;;2.90;1.05;;;21.20;38.80;;;;;;5054839;28;20459;-55
2021/04/25 10:53:37;;;;;;;1.90;0.90;;;21.20;39.00;;;;;;5055308;28;20051;-53
2021/04/25 10:56:12;;;;;;;6.28;0.90;;;21.30;39.70;;;;;;5055289;28;20025;-60
2021/04/25 10:58:45;;;;;;;3.95;0.60;;;21.30;39.10;;;;;;5055493;28;20321;-58
2021/04/25 11:01:39;;;;;;;6.68;0.95;;;21.30;39.10;;;;;;5054595;28;20482;-57
2021/04/25 11:04:04;;;;;;;;;;;21.30;39.00;;;;;;5055637;28;20017;-55
2021/04/25 11:06:31;;;;;;;3.92;0.50;;;21.30;39.00;;;;;;5054498;28;19905;-56
2021/04/25 11:08:57;;;;;;;3.28;0.68;;;21.20;38.90;;;;;;5055280;28;20096;-57
2021/04/25 11:11:31;;;;;;;2.65;0.98;;;21.30;38.90;;;;;;5055011;28;20090;-59
2021/04/25 11:13:57;;;;;;;4.35;0.63;;;21.30;38.90;;;;;;5054923;28;20032;-57
2021/04/25 11:16:22;;;;;;;2.85;0.88;;;21.30;38.80;;;;;;5054905;28;20032;-58
2021/04/25 11:18:52;;;;;;;1.70;0.60;;;21.40;39.10;;;;;;5054790;28;20029;-58
2021/04/25 11:21:31;;;;;;;6.13;0.90;;;21.40;38.80;;;;;;5055008;28;20344;-53
2021/04/25 11:24:03;;;;;;;3.03;0.63;;;21.40;38.70;;;;;;5054417;28;20470;-56
2021/04/25 11:26:41;;;;;;;1.80;0.60;;;21.40;38.60;;;;;;5036838;28;20045;-57
2021/04/25 11:29:07;;;;;;;5.75;1.10;;;21.40;38.60;;;;;;5055168;28;20021;-52
2021/04/25 11:31:47;;;;;;;3.25;0.85;;;21.40;38.50;;;;;;5054815;28;20048;-49
2021/04/25 11:34:24;;;;;;;3.33;0.95;;;21.40;38.20;;;;;;5054290;28;20033;-51
2021/04/25 11:37:01;;;;;;;3.20;0.95;;;21.40;37.70;;;;;;5036899;28;20040;-53
2021/04/25 11:39:38;;;;;;;3.45;0.60;;;21.40;37.80;;;;;;5054671;28;20150;-52
2021/04/25 11:42:05;;;;;;;2.28;0.80;;;21.40;38.00;;;;;;5054817;28;20017;-51
2021/04/25 11:44:35;;;;;;;3.20;0.93;;;21.50;38.00;;;;;;5054969;28;20028;-51
2021/04/25 11:47:12;;;;;;;4.10;0.90;;;21.50;38.10;;;;;;5055034;28;20454;-53
2021/04/25 11:49:51;;;;;;;1.08;0.55;;;21.50;38.00;;;;;;5054557;28;20021;-51
2021/04/25 11:52:22;;;;;;;1.10;0.70;;;21.50;38.00;;;;;;5054522;28;20032;-56
2021/04/25 11:55:09;;;;;;;2.70;0.85;;;21.50;38.00;;;;;;5054558;28;20036;-54
2021/04/25 11:57:38;;;;;;;2.90;0.52;;;21.60;38.00;;;;;;5054423;28;20017;-54
2021/04/25 12:00:10;;;;;;;1.45;0.65;;;21.60;38.00;;;;;;5054909;28;20061;-49
2021/04/25 12:02:55;;;;;;;1.42;0.85;;;21.60;37.90;;;;;;5054477;28;20017;-51
2021/04/25 12:05:25;;;;;;;2.25;0.55;;;21.60;37.90;;;;;;5054889;28;20048;-52
2021/04/25 12:07:53;;;;;;;1.58;0.60;;;21.60;37.80;;;;;;5054159;28;20501;-52
2021/04/25 12:10:39;;;;;;;1.90;1.13;;;21.70;37.90;;;;;;5054258;28;20083;-47
2021/04/25 12:13:19;;;;;;;2.95;1.17;;;21.60;36.70;;;;;;5054296;28;20035;-54
2021/04/25 12:16:01;;;;;;;2.88;0.80;;;21.60;37.30;;;;;;5054533;28;20337;-55
2021/04/25 12:18:37;;;;;;;3.17;1.13;;;21.60;37.40;;;;;;5055046;28;20487;-55
2021/04/25 12:21:06;;;;;;;1.17;0.75;;;21.60;37.40;;;;;;5058232;28;20024;-56
2021/04/25 12:23:34;;;;;;;3.47;0.80;;;21.60;37.40;;;;;;5058212;28;20052;-59
2021/04/25 12:26:06;;;;;;;0.50;0.35;;;21.70;37.50;;;;;;5058349;28;20029;-56
2021/04/25 12:29:00;;;;;;;1.20;0.50;;;21.70;37.50;;;;;;5058169;28;20045;-56
2021/04/25 12:31:39;;;;;;;0.77;0.55;;;21.70;37.50;;;;;;5053100;28;20375;-55
2021/04/25 12:34:06;;;;;;;2.38;0.80;;;21.70;37.50;;;;;;5058082;28;20037;-52
2021/04/25 12:36:32;;;;;;;3.00;0.70;;;21.70;36.80;;;;;;5058152;28;20336;-53
2021/04/25 12:39:04;;;;;;;3.80;1.00;;;21.70;37.10;;;;;;5058079;28;20029;-53
2021/04/25 12:41:43;;;;;;;2.88;1.00;;;21.70;37.20;;;;;;5057676;28;20028;-61
2021/04/25 12:44:10;;;;;;;1.85;0.70;;;21.70;37.20;;;;;;5058318;28;20025;-53
2021/04/25 12:46:36;;;;;;;4.22;0.73;;;21.70;37.10;;;;;;5058135;28;20017;-53
2021/04/25 12:49:08;;;;;;;2.42;0.70;;;21.70;37.00;;;;;;5057660;28;20108;-50